Latest Weather Observations for Jervis Bay Airfield

IDN60901

Issued at 12:01 pm EST Tuesday 7 July 2020 (issued every 10 minutes, with the page automatically refreshed every 10 minutes)

About weather observations | Map of Canberra area stations | Latest observations for Canberra area | Other Formats
Station Details ID: 068264 Name: JERVIS BAY AIRFIELD AWS Lat: -35.14 Lon: 150.70 Height: 57.18 m
Data from the previous 72 hours. | See also: Recent months at Jervis Bay Airfield
Date/Time
EST
Temp
°C
App
Temp
°C
Dew
Point
°C
Rel
Hum
%
Delta-T
°C
Wind Press
QNH
hPa
Press
MSL
hPa
Rain since
9am
mm
Dir  Spd
km/h
Gust
km/h
Spd
kts
Gust
kts
07/12:00pm 14.7 10.4 8.0 64 3.3 SSW 20 26 11 14 1029.7 1029.7 0.0
07/11:30am 14.9 10.5 7.5 61 3.7 SSW 20 28 11 15 1030.0 1030.0 0.0
07/11:00am 15.4 11.1 7.9 61 3.7 SSW 20 28 11 15 1030.1 1030.1 0.0
07/10:30am 14.8 10.6 7.4 61 3.7 SSW 19 30 10 16 1030.1 1030.1 0.0
07/10:00am 14.2 9.9 6.8 61 3.6 SW 19 26 10 14 1030.0 1030.0 0.0
07/09:30am 13.8 9.5 7.1 64 3.3 SW 19 26 10 14 1030.0 1030.0 0.0
07/09:00am 12.0 9.4 7.7 75 2.1 W 11 15 6 8 1029.8 1029.8 0.0
07/08:30am 11.3 8.9 7.0 75 2.1 W 9 13 5 7 1029.6 1029.6 0.0
07/08:00am 10.4 8.0 6.9 79 1.6 WSW 9 11 5 6 1029.5 1029.5 0.0
07/07:30am 9.6 6.8 7.0 84 1.2 W 11 13 6 7 1029.3 1029.3 0.0
07/07:00am 9.2 6.4 7.0 86 1.0 W 11 13 6 7 1029.1 1029.1 0.0
07/06:30am 9.1 7.1 7.1 87 0.9 W 7 9 4 5 1029.0 1029.0 0.0
07/06:00am 9.1 6.7 7.2 88 0.9 W 9 13 5 7 1028.8 1028.8 0.0
07/05:30am 8.3 5.5 6.9 91 0.7 W 11 13 6 7 1028.5 1028.5 0.0
07/05:00am 7.5 4.2 6.3 92 0.5 W 13 15 7 8 1028.4 1028.4 0.0
07/04:30am 7.8 4.9 6.3 90 0.7 W 11 15 6 8 1028.4 1028.4 0.0
07/04:00am 8.3 5.8 6.6 89 0.8 WSW 9 11 5 6 1028.3 1028.3 0.0
07/03:30am 8.0 5.1 6.6 91 0.6 W 11 15 6 8 1028.2 1028.2 0.0
07/03:00am 8.4 5.4 6.2 86 1.0 W 11 13 6 7 1028.4 1028.4 0.0
07/02:30am 8.1 5.4 5.7 85 1.1 WSW 9 9 5 5 1028.4 1028.4 0.0
07/02:00am 8.7 5.3 6.0 83 1.2 WSW 13 15 7 8 1028.4 1028.4 0.0
07/01:30am 9.2 5.9 6.5 83 1.3 W 13 15 7 8 1028.4 1028.4 0.0
07/01:00am 10.6 7.5 7.1 79 1.7 WSW 13 17 7 9 1028.3 1028.3 0.0
07/12:30am 11.2 7.8 7.5 78 1.8 WSW 15 19 8 10 1028.3 1028.3 0.0
07/12:00am 11.6 8.3 7.9 78 1.8 WSW 15 20 8 11 1028.4 1028.4 0.0
 
Date/Time
EST
Temp
°C
App
Temp
°C
Dew
Point
°C
Rel
Hum
%
Delta-T
°C
Wind Press
QNH
hPa
Press
MSL
hPa
Rain since
9am
mm
Dir  Spd
km/h
Gust
km/h
Spd
kts
Gust
kts
06/11:30pm 11.9 9.0 8.2 78 1.8 WSW 13 19 7 10 1028.6 1028.6 0.0
06/11:00pm 11.5 8.7 8.4 81 1.5 WSW 13 17 7 9 1028.8 1028.8 0.0
06/10:30pm 10.2 8.1 8.1 87 1.0 W 9 11 5 6 1028.8 1028.8 0.0
06/10:00pm 10.3 7.8 8.2 87 1.0 W 11 11 6 6 1028.8 1028.8 0.0
06/09:30pm 10.1 7.6 8.2 88 0.9 W 11 13 6 7 1028.7 1028.7 0.0
06/09:00pm 9.9 7.8 8.3 90 0.8 W 9 11 5 6 1028.8 1028.8 0.0
06/08:30pm 10.2 8.2 8.6 90 0.8 W 9 13 5 7 1028.7 1028.7 0.0
06/08:00pm 10.1 7.7 8.7 91 0.7 W 11 13 6 7 1028.7 1028.7 0.0
06/07:30pm 9.9 7.5 8.7 92 0.6 W 11 13 6 7 1028.3 1028.3 0.0
06/07:00pm 8.7 6.7 7.0 89 0.8 S 7 7 4 4 1028.0 1028.0 0.0
06/06:30pm 9.5 7.6 7.4 87 1.0 S 7 9 4 5 1027.7 1027.7 0.0
06/06:00pm 11.0 9.1 7.5 79 1.7 S 7 9 4 5 1027.3 1027.3 0.0
06/05:30pm 11.3 9.0 7.6 78 1.8 S 9 11 5 6 1027.0 1027.0 0.0
06/05:00pm 12.0 9.8 7.7 75 2.1 S 9 11 5 6 1026.7 1026.7 0.0
06/04:30pm 13.5 10.5 7.5 67 2.9 S 13 17 7 9 1026.4 1026.4 0.0
06/04:00pm 13.9 11.0 8.1 68 2.9 SSE 13 17 7 9 1026.4 1026.4 0.0
06/03:30pm 14.2 9.9 6.8 61 3.6 SSE 19 26 10 14 1026.4 1026.4 0.0
06/03:00pm 15.0 11.5 7.3 60 3.8 S 15 20 8 11 1026.2 1026.2 0.0
06/02:30pm 14.9 11.5 7.5 61 3.7 S 15 22 8 12 1026.2 1026.2 0.0
06/02:00pm 15.2 11.9 8.2 63 3.5 SSW 15 22 8 12 1026.2 1026.2 0.0
06/01:30pm 15.0 11.5 8.7 66 3.2 SSW 17 20 9 11 1026.4 1026.4 0.0
06/01:00pm 15.0 11.3 8.0 63 3.5 S 17 24 9 13 1026.5 1026.5 0.0
06/12:30pm 14.9 11.7 8.4 65 3.3 SW 15 20 8 11 1026.9 1026.9 0.0
06/12:00pm 14.8 12.0 8.7 67 3.1 SSW 13 20 7 11 1027.2 1027.2 0.0
06/11:30am 14.8 11.6 8.3 65 3.3 SSW 15 22 8 12 1027.6 1027.6 0.0
06/11:00am 14.5 11.7 8.5 67 3.0 WSW 13 19 7 10 1028.0 1028.0 0.0
06/10:30am 13.9 11.8 8.3 69 2.8 W 9 13 5 7 1028.0 1028.0 0.0
06/10:00am 12.0 10.1 7.7 75 2.1 WNW 7 9 4 5 1028.1 1028.1 0.0
06/09:30am 10.0 7.7 7.3 83 1.3 WNW 9 11 5 6 1027.9 1027.9 0.0
06/09:00am 9.1 5.8 6.4 83 1.2 W 13 17 7 9 1027.7 1027.7 0.0
06/08:30am 8.5 5.1 6.1 85 1.1 W 13 17 7 9 1027.4 1027.4 0.0
06/08:00am 8.0 4.6 5.8 86 1.0 W 13 17 7 9 1027.0 1027.0 0.0
06/07:30am 7.7 4.3 5.7 87 0.9 W 13 15 7 8 1026.8 1026.8 0.0
06/07:00am 7.3 4.2 5.6 89 0.8 W 11 13 6 7 1026.5 1026.5 0.0
06/06:30am 7.3 4.6 5.8 90 0.7 W 9 11 5 6 1026.2 1026.2 0.0
06/06:00am 7.6 4.6 6.2 91 0.6 W 11 13 6 7 1025.9 1025.9 0.0
06/05:30am 7.8 4.9 6.6 92 0.6 W 11 13 6 7 1025.5 1025.5 0.0
06/05:00am 7.8 5.2 6.3 90 0.7 W 9 13 5 7 1025.3 1025.3 0.0
06/04:30am 8.2 5.3 6.3 88 0.9 W 11 13 6 7 1025.2 1025.2 0.0
06/04:00am 8.6 5.2 6.1 84 1.1 W 13 17 7 9 1025.2 1025.2 0.0
06/03:30am 9.1 6.3 7.1 87 0.9 WSW 11 20 6 11 1025.3 1025.3 0.0
06/03:00am 8.9 6.2 7.2 89 0.8 W 11 13 6 7 1025.1 1025.1 0.0
06/02:30am 9.1 6.0 7.2 88 0.9 W 13 15 7 8 1025.0 1025.0 0.0
06/02:00am 9.5 6.8 7.4 87 1.0 W 11 13 6 7 1025.2 1025.2 0.0
06/01:30am 10.3 7.7 7.7 84 1.3 W 11 15 6 8 1025.2 1025.2 0.0
06/01:00am 11.8 9.8 8.8 82 1.5 WNW 9 11 5 6 1025.1 1025.1 0.0
06/12:30am 12.5 10.4 8.2 75 2.1 W 9 13 5 7 1025.1 1025.1 0.0
06/12:00am 14.2 10.6 8.4 68 2.9 SSW 17 24 9 13 1025.2 1025.2 0.0
 
Date/Time
EST
Temp
°C
App
Temp
°C
Dew
Point
°C
Rel
Hum
%
Delta-T
°C
Wind Press
QNH
hPa
Press
MSL
hPa
Rain since
9am
mm
Dir  Spd
km/h
Gust
km/h
Spd
kts
Gust
kts
05/11:30pm 14.3 10.7 8.3 67 3.0 SSW 17 24 9 13 1025.1 1025.1 0.0
05/11:00pm 14.2 11.6 9.2 72 2.5 SSW 13 22 7 12 1025.0 1025.0 0.0
05/10:30pm 11.9 9.5 8.7 81 1.6 W 11 15 6 8 1024.9 1024.9 0.0
05/10:00pm 11.9 9.6 8.9 82 1.5 W 11 17 6 9 1024.7 1024.7 0.0
05/09:30pm 11.7 9.0 9.1 84 1.3 W 13 19 7 10 1024.4 1024.4 0.0
05/09:00pm 11.8 9.9 9.0 83 1.4 W 9 13 5 7 1024.2 1024.2 0.0
05/08:30pm 11.8 9.8 8.6 81 1.6 WSW 9 15 5 8 1023.8 1023.8 0.0
05/08:00pm 11.5 9.4 8.4 81 1.5 W 9 13 5 7 1023.5 1023.5 0.0
05/07:30pm 11.4 8.5 8.1 80 1.6 WNW 13 17 7 9 1023.3 1023.3 0.0
05/07:00pm 11.4 8.9 8.4 82 1.5 W 11 13 6 7 1023.0 1023.0 0.0
05/06:30pm 10.7 8.4 7.6 81 1.5 WSW 9 13 5 7 1022.7 1022.7 0.0
05/06:00pm 11.9 9.6 7.4 74 2.2 S 9 11 5 6 1022.2 1022.2 0.0
05/05:30pm 12.0 9.2 7.1 72 2.4 S 11 13 6 7 1021.7 1021.7 0.0
05/05:00pm 12.7 10.0 7.4 70 2.6 S 11 13 6 7 1021.4 1021.4 0.0
05/04:30pm 14.2 11.4 7.0 62 3.5 SSE 11 13 6 7 1021.1 1021.1 0.0
05/04:00pm 15.1 12.6 6.4 56 4.2 SE 9 13 5 7 1021.0 1021.0 0.0
05/03:30pm 15.6 12.6 5.8 52 4.7 SSE 11 15 6 8 1020.9 1020.9 0.0
05/03:00pm 15.9 12.6 4.6 47 5.3 SSE 11 15 6 8 1020.8 1020.8 0.0
05/02:30pm 16.1 13.1 3.9 44 5.7 S 9 13 5 7 1020.6 1020.6 0.0
05/02:00pm 16.0 12.6 4.1 45 5.5 S 11 17 6 9 1020.4 1020.4 0.0
05/01:30pm 15.8 12.1 4.2 46 5.4 SSW 13 17 7 9 1020.4 1020.4 0.0
05/01:00pm 16.0 11.5 4.1 45 5.5 SSW 17 22 9 12 1020.6 1020.6 0.0
05/12:30pm 15.9 11.3 3.7 44 5.6 SW 17 26 9 14 1020.8 1020.8 0.0
05/12:00pm 15.6 10.8 4.6 48 5.1 WSW 19 30 10 16 1021.1 1021.1 0.0
05/11:30am 15.6 10.8 4.6 48 5.2 W 19 24 10 13 1021.4 1021.4 0.0
05/11:00am 15.1 10.9 5.9 54 4.4 W 17 24 9 13 1021.7 1021.7 0.0
05/10:30am 14.6 10.6 6.7 59 3.8 W 17 24 9 13 1021.7 1021.7 0.0
05/10:00am 13.8 9.3 6.2 60 3.6 W 19 26 10 14 1021.6 1021.6 0.0
05/09:30am 12.9 8.5 6.5 65 3.1 WNW 19 28 10 15 1021.4 1021.4 0.0
05/09:00am 11.9 7.3 6.4 69 2.6 WNW 20 26 11 14 1021.1 1021.1 0.0
05/08:30am 11.1 6.5 6.3 72 2.3 WNW 20 28 11 15 1021.1 1021.1 0.0
05/08:00am 10.4 5.9 6.2 75 2.0 WNW 19 24 10 13 1020.9 1020.9 0.0
05/07:30am 9.7 5.5 5.9 77 1.7 WNW 17 24 9 13 1020.6 1020.6 0.0
05/07:00am 9.9 5.3 5.7 75 1.9 WNW 19 28 10 15 1020.2 1020.2 0.0
05/06:30am 9.9 5.3 5.7 75 1.9 WNW 19 28 10 15 1019.9 1019.9 0.0
05/06:00am 9.8 5.0 5.6 75 1.9 WNW 20 28 11 15 1019.4 1019.4 0.0
05/05:30am 10.2 5.0 5.4 72 2.2 WNW 22 32 12 17 1018.9 1019.0 0.0
05/05:00am 10.4 5.1 5.2 70 2.4 W 22 32 12 17 1018.6 1018.7 0.0
05/04:30am 10.3 5.0 4.9 69 2.4 WNW 22 32 12 17 1018.5 1018.6 0.0
05/04:00am 10.0 5.0 4.8 70 2.3 W 20 30 11 16 1018.2 1018.3 0.0
05/03:30am 10.1 5.7 4.9 70 2.3 WNW 17 24 9 13 1018.3 1018.4 0.0
05/03:00am 9.8 5.3 4.4 69 2.4 W 17 24 9 13 1018.3 1018.4 0.0
05/02:30am 9.9 5.5 4.5 69 2.4 W 17 22 9 12 1018.4 1018.5 0.0
05/02:00am 9.9 5.5 4.5 69 2.4 W 17 22 9 12 1018.4 1018.5 0.0
05/01:30am 10.0 5.5 4.4 68 2.5 W 17 26 9 14 1018.3 1018.4 0.0
05/01:00am 10.2 5.7 4.1 66 2.7 W 17 24 9 13 1018.2 1018.3 0.0
05/12:30am 10.3 5.4 4.0 65 2.8 W 19 26 10 14 1018.0 1018.1 0.0
05/12:00am 10.6 5.2 4.3 65 2.8 WNW 22 30 12 16 1018.0 1018.1 0.0
 
Date/Time
EST
Temp
°C
App
Temp
°C
Dew
Point
°C
Rel
Hum
%
Delta-T
°C
Wind Press
QNH
hPa
Press
MSL
hPa
Rain since
9am
mm
Dir  Spd
km/h
Gust
km/h
Spd
kts
Gust
kts
04/11:30pm 10.5 5.0 4.2 65 2.8 WNW 22 35 12 19 1018.2 1018.3 0.0
04/11:00pm 10.6 5.2 4.3 65 2.8 WNW 22 33 12 18 1018.3 1018.4 0.0
04/10:30pm 10.5 4.7 4.4 66 2.7 WNW 24 35 13 19 1018.2 1018.3 0.0
04/10:00pm 10.4 4.2 4.5 67 2.6 WNW 26 37 14 20 1018.2 1018.3 0.0
04/09:30pm 10.2 4.4 4.6 68 2.5 WNW 24 37 13 20 1018.2 1018.3 0.0
04/09:00pm 10.4 3.9 4.5 67 2.6 WNW 28 43 15 23 1018.5 1018.6 0.0
04/08:30pm 10.6 4.1 4.7 67 2.7 WNW 28 41 15 22 1018.4 1018.5 0.0
04/08:00pm 10.8 5.1 4.7 66 2.8 WNW 24 37 13 20 1018.9 1019.0 0.0
04/07:30pm 10.9 6.0 5.0 67 2.7 WNW 20 28 11 15 1018.7 1018.8 0.0
04/07:00pm 10.5 6.6 5.3 70 2.4 WNW 15 22 8 12 1018.5 1018.6 0.0
04/06:30pm 10.5 7.0 5.3 70 2.4 WNW 13 20 7 11 1018.5 1018.6 0.0
04/06:00pm 8.0 5.9 6.0 87 0.9 SW 6 7 3 4 1018.4 1018.5 0.0
04/05:30pm 8.7 7.4 6.0 83 1.2 SW 2 6 1 3 1018.3 1018.4 0.0
04/05:00pm 10.4 8.3 6.5 77 1.8 SW 7 9 4 5 1018.1 1018.2 0.0
04/04:30pm 12.7 10.3 5.4 61 3.4 SW 7 11 4 6 1018.0 1018.1 0.0
04/04:00pm 13.2 10.3 4.6 56 4.0 SSW 9 15 5 8 1018.2 1018.3 0.0
04/03:30pm 13.6 9.4 3.7 51 4.5 SSW 15 20 8 11 1018.1 1018.2 0.0
04/03:00pm 13.9 9.2 3.4 49 4.7 S 17 20 9 11 1018.0 1018.1 0.0
04/02:30pm 14.2 9.8 4.5 52 4.5 S 17 24 9 13 1018.1 1018.2 0.0
04/02:00pm 14.2 10.4 3.9 50 4.7 S 13 20 7 11 1017.9 1018.0 0.0
04/01:30pm 14.1 9.5 1.4 42 5.5 SSW 15 24 8 13 1018.1 1018.2 0.0
04/01:00pm 13.4 8.5 2.0 46 5.0 SW 17 22 9 12 1018.4 1018.5 0.0
04/12:30pm 13.0 8.1 1.7 46 4.9 SW 17 28 9 15 1018.4 1018.5 0.0

Latest Capital City Observations: Canberra | Sydney | Melbourne | Brisbane | Adelaide | Perth | Hobart | Darwin

Other formats

Comma delimited format used in spreadsheet applications
http://www.bom.gov.au/fwo/IDN60903/IDN60903.94751.axf

JavaScript Object Notation format (JSON) in row-major order
http://www.bom.gov.au/fwo/IDN60903/IDN60903.94751.json

Data quality

Most of these data are generated automatically and are frequently updated. Quality checks on data are not normally performed. It is possible for incorrect values to appear. Refer to information at About Latest Weather Observations and please check the disclaimer before using these data.